Cleone, California
Current Conditions -  °F | °C
As of 12:56 AM on Wednesday 26 Nov 2014 (Local Time) from KUKI Reporting Station
Clear Clear  
Wind Chill: 43°   Ceiling: Unl
Heat Index: 43°   Visibility: 10mi
Dew Point: 40°   Wind: 3mph
Humidity: 89%   Direction: 310°NW
Pressure: 30.34"   Gusts: NA
Location:  39.4588°N, 123.715°W
Report Text: KUKI 260856Z AUTO 31003KT 10SM CLR 06/04 A3034 RMK AO2 SLP272 T00610044 56007
Loading
Personal Weather Stations






























Interactive Weather Map New forecast layout! Learn more

10-Day Weather Forecast

Advertisements
Track Severe Weather on mobile